Flight Track Log - Related Links

Times and Time Zones

All times are in EDT time to prevent confusion due to time zone crossing. See the EJA982 flight status page for this flight to view local times or setup timezone preferences in your user account.

Time Position Orientation Groundspeed Altitude Reporting Facility
EDT Latitude Longitude Course Direction KTS MPH feet Rate Location/Type
Sat 12:25:56 PM 42.7714 -73.8092 341° North 184 212 1,400  Level Boston Center
Sat 12:26:44 PM 42.8169 -73.8300 341° North 250 288 4,100 3,333 Climbing Boston Center
Sat 12:27:44 PM 42.8581 -73.8903 313° West 264 304 7,400 3,700 Climbing Boston Center
Sat 12:28:44 PM 42.8772 -74.0153 282° West 269 310 11,500 3,350 Climbing Boston Center
Sat 12:29:44 PM 42.8361 -74.1219 242° Southwest 317 365 14,100 2,450 Climbing Boston Center
Sat 12:30:44 PM 42.7308 -74.1953 207° Southwest 348 400 16,400 2,000 Climbing Boston Center
Sat 12:31:44 PM 42.6222 -74.2064 184° South 384 442 18,100 1,700 Climbing Boston Center
Sat 12:32:44 PM 42.5164 -74.1667 165° South 384 442 19,800 1,750 Climbing Boston Center
Sat 12:33:44 PM 42.4047 -74.1158 161° South 398 458 21,600 1,600 Climbing Boston Center
Sat 12:34:44 PM 42.2889 -74.0622 161° South 423 487 23,000 1,650 Climbing Boston Center
Sat 12:35:44 PM 42.1636 -74.0675 182° South 449 517 24,900 1,850 Climbing Boston Center
Sat 12:36:44 PM 42.0378 -74.1200 197° South 457 526 26,700 1,516 Climbing Boston Center
Sat 12:38:54 PM 41.7603 -74.2414 198° South 500 575 29,700 1,326 Climbing New York Center
Sat 12:39:54 PM 41.6275 -74.2983 198° South 505 581 30,900 1,563 Climbing New York Center
Sat 12:40:53 PM 41.5008 -74.3553 199° South 495 570 32,800 1,686 Climbing New York Center
Sat 12:41:55 PM 41.3700 -74.4119 198° South 495 570 34,300 1,339 Climbing New York Center
Sat 12:42:54 PM 41.2478 -74.4578 196° South 503 579 35,500 1,311 Climbing New York Center
Sat 12:43:54 PM 41.1147 -74.5192 199° South 509 586 36,900 1,438 Climbing New York Center
Sat 12:44:55 PM 41.0028 -74.6286 216° Southwest 499 574 38,400 1,400 Climbing New York Center
Sat 12:45:54 PM 40.9333 -74.7756 238° Southwest 472 543 39,700 793 Climbing New York Center
Sat 12:46:56 PM 40.8353 -74.8989 224° Southwest 477 549 40,000 151 Climbing New York Center
Sat 12:47:53 PM 40.7247 -75.0181 219° Southwest 498 573 40,000  Level New York Center
Sat 12:48:53 PM 40.6139 -75.1425 220° Southwest 513 590 40,000  Level New York Center
Sat 12:49:54 PM 40.5011 -75.2608 219° Southwest 524 603 40,000  Level New York Center
Sat 12:50:56 PM 40.3772 -75.3944 219° Southwest 524 603 40,000  Level New York Center
Sat 12:51:54 PM 40.2661 -75.5147 220° Southwest 527 606 40,000  Level New York Center
Sat 12:52:53 PM 40.1819 -75.6369 228° Southwest 520 598 40,000  Level New York Center
Sat 12:53:54 PM 40.1067 -75.7944 238° Southwest 515 593 40,000  Level New York Center
Sat 12:54:53 PM 40.0219 -75.9672 237° Southwest 520 598 40,000  Level New York Center
Sat 12:55:53 PM 39.9444 -76.1186 236° Southwest 515 593 40,000  Level New York Center
Sat 12:57:51 PM 39.7986 -76.3936 235° Southwest 516 594 40,000  Level Washington Center
Sat 12:58:49 PM 39.7097 -76.5600 235° Southwest 516 594 40,000  Level Washington Center
Sat 12:59:49 PM 39.6333 -76.7097 237° Southwest 521 600 40,000  Level Washington Center
Sat 01:00:50 PM 39.5528 -76.8619 236° Southwest 516 594 40,000 -50 Level Washington Center
Sat 01:01:50 PM 39.4761 -77.0164 237° Southwest 511 588 39,900  Descending Washington Center
Sat 01:02:51 PM 39.3622 -77.1269 217° Southwest 516 594 40,000 50 Climbing Washington Center
Sat 01:03:51 PM 39.2667 -77.2589 227° Southwest 516 594 40,000  Level Washington Center
Sat 01:04:49 PM 39.1689 -77.3933 227° Southwest 516 594 40,000  Level Washington Center
Sat 01:05:49 PM 39.0772 -77.5222 228° Southwest 516 594 40,000  Level Washington Center
Sat 01:06:50 PM 38.9792 -77.6583 227° Southwest 516 594 40,000  Level Washington Center
Sat 01:07:51 PM 38.8917 -77.7733 226° Southwest 516 594 40,000  Level Washington Center
Sat 01:08:51 PM 38.7972 -77.9089 228° Southwest 517 595 40,000  Level Washington Center
Sat 01:09:50 PM 38.7008 -78.0389 226° Southwest 517 595 40,000  Level Washington Center
Sat 01:10:51 PM 38.6064 -78.1686 227° Southwest 517 595 40,000  Level Washington Center
Sat 01:11:52 PM 38.5097 -78.2981 226° Southwest 517 595 40,000  Level Washington Center
Sat 01:12:49 PM 38.4150 -78.4269 227° Southwest 517 595 40,000  Level Washington Center
Sat 01:13:50 PM 38.3181 -78.5558 226° Southwest 517 595 40,000  Level Washington Center
Sat 01:14:52 PM 38.2208 -78.6919 228° Southwest 506 582 40,000 101 Level Washington Center
Sat 01:15:49 PM 38.1256 -78.8200 227° Southwest 500 575 40,200 814 Climbing Washington Center
Sat 01:16:50 PM 38.0350 -78.9375 226° Southwest 494 568 41,600 1,388 Climbing Washington Center
Sat 01:17:50 PM 37.9461 -79.0544 226° Southwest 481 554 43,000 694 Climbing Washington Center
Sat 01:18:51 PM 37.8761 -79.1644 231° Southwest 460 529 43,000  Level Washington Center
Sat 01:19:49 PM 37.8072 -79.3058 238° Southwest 460 529 43,000  Level Washington Center
Sat 01:20:50 PM 37.7381 -79.4467 238° Southwest 472 543 43,000  Level Washington Center
Sat 01:21:50 PM 37.6625 -79.5897 236° Southwest 486 559 43,000  Level Washington Center
Sat 01:22:51 PM 37.5842 -79.7431 237° Southwest 486 559 43,000  Level Washington Center
Sat 01:23:50 PM 37.5189 -79.8756 238° Southwest 489 563 43,000  Level Washington Center
Sat 01:25:25 PM 37.4025 -80.1019 237° Southwest 493 567 43,000  Level Atlanta Center
Sat 01:26:25 PM 37.3300 -80.2442 237° Southwest 493 567 43,000  Level Atlanta Center
Sat 01:27:25 PM 37.2492 -80.3992 237° Southwest 493 567 43,000  Level Atlanta Center
Sat 01:28:25 PM 37.1761 -80.5406 237° Southwest 493 567 43,000  Level Atlanta Center
Sat 01:29:25 PM 37.1008 -80.6819 236° Southwest 493 567 43,000  Level Atlanta Center
Sat 01:30:25 PM 37.0403 -80.8328 243° Southwest 493 567 43,000  Level Atlanta Center
Sat 01:31:25 PM 36.9939 -80.9722 247° West 487 560 43,000  Level Atlanta Center
Sat 01:32:25 PM 36.9392 -81.1275 246° West 487 560 43,000  Level Atlanta Center
Sat 01:33:25 PM 36.8844 -81.2828 246° West 487 560 43,000  Level Atlanta Center
Sat 01:34:25 PM 36.8272 -81.4350 245° Southwest 487 560 43,000  Level Atlanta Center
Sat 01:35:25 PM 36.7722 -81.5925 246° West 494 568 43,000  Level Atlanta Center
Sat 01:36:25 PM 36.7147 -81.7469 245° Southwest 489 563 43,000  Level Atlanta Center
Sat 01:37:25 PM 36.6592 -81.9011 246° West 489 563 43,000  Level Atlanta Center
Sat 01:38:25 PM 36.5992 -82.0683 246° West 489 563 43,000  Level Atlanta Center
Sat 01:39:25 PM 36.5411 -82.2222 245° Southwest 489 563 43,000  Level Atlanta Center
Sat 01:40:25 PM 36.4828 -82.3733 244° Southwest 489 563 43,000  Level Atlanta Center
Sat 01:41:25 PM 36.4244 -82.5267 245° Southwest 489 563 43,000  Level Atlanta Center
Sat 01:42:25 PM 36.3678 -82.6775 245° Southwest 484 557 43,000  Level Atlanta Center
Sat 01:43:25 PM 36.3108 -82.8303 245° Southwest 484 557 43,000  Level Atlanta Center
Sat 01:44:25 PM 36.2561 -82.9806 246° West 484 557 43,000  Level Atlanta Center
Sat 01:45:25 PM 36.1989 -83.1278 244° Southwest 484 557 43,000  Level Atlanta Center
Sat 01:46:25 PM 36.1436 -83.2803 246° West 484 557 43,000  Level Atlanta Center
Sat 01:47:25 PM 36.0858 -83.4297 244° Southwest 484 557 43,000  Level Atlanta Center
Sat 01:48:25 PM 36.0344 -83.5611 244° Southwest 484 557 43,000  Level Atlanta Center
Sat 01:49:25 PM 35.9764 -83.7078 244° Southwest 479 551 43,000  Level Atlanta Center
Sat 01:50:25 PM 35.9183 -83.8567 244° Southwest 479 551 43,000  Level Atlanta Center
Sat 01:51:25 PM 35.8414 -83.9875 234° Southwest 485 558 43,000  Level Atlanta Center
Sat 01:52:25 PM 35.7536 -84.1078 228° Southwest 480 552 43,000  Level Atlanta Center
Sat 01:53:25 PM 35.6639 -84.2278 227° Southwest 480 552 43,000  Level Atlanta Center
Sat 01:54:25 PM 35.5781 -84.3478 229° Southwest 480 552 43,000  Level Atlanta Center
Sat 01:55:25 PM 35.4900 -84.4697 228° Southwest 480 552 43,000  Level Atlanta Center
Sat 01:56:25 PM 35.4083 -84.5969 232° Southwest 480 552 43,000  Level Atlanta Center
Sat 01:57:25 PM 35.3428 -84.7389 241° Southwest 480 552 43,000  Level Atlanta Center
Sat 01:58:25 PM 35.2772 -84.8783 240° Southwest 480 552 43,000  Level Atlanta Center
Sat 01:59:25 PM 35.2031 -85.0300 239° Southwest 480 552 43,000  Level Atlanta Center
Sat 02:00:25 PM 35.1372 -85.1717 240° Southwest 480 552 43,000  Level Atlanta Center
Sat 02:01:25 PM 35.0692 -85.3153 240° Southwest 480 552 43,000  Level Atlanta Center
Sat 02:02:25 PM 34.9986 -85.4561 239° Southwest 480 552 43,000  Level Atlanta Center
Sat 02:03:25 PM 34.9322 -85.5969 240° Southwest 480 552 43,000  Level Atlanta Center
Sat 02:04:25 PM 34.8658 -85.7375 240° Southwest 480 552 43,000  Level Atlanta Center
Sat 02:05:25 PM 34.7969 -85.8778 239° Southwest 480 552 43,000  Level Atlanta Center
Sat 02:06:25 PM 34.7281 -86.0178 239° Southwest 480 552 43,000  Level Atlanta Center
Sat 02:07:25 PM 34.6589 -86.1600 239° Southwest 480 552 43,000  Level Atlanta Center
Sat 02:08:25 PM 34.5894 -86.3019 239° Southwest 480 552 43,000 50 Level Atlanta Center
Sat 02:09:25 PM 34.5203 -86.4389 239° Southwest 480 552 43,100 750 Climbing Atlanta Center
Sat 02:10:25 PM 34.4528 -86.5756 239° Southwest 480 552 44,500 820 Climbing Atlanta Center
Sat 02:11:44 PM 34.3722 -86.7311 238° Southwest 447 514 45,000 261 Climbing Memphis Center
Sat 02:12:20 PM 34.3328 -86.8133 240° Southwest 464 534 45,000  Level Memphis Center
Sat 02:13:20 PM 34.2578 -86.9622 239° Southwest 485 558 45,000  Level Memphis Center
Sat 02:14:20 PM 34.1906 -87.1003 240° Southwest 478 550 45,000  Level Memphis Center
Sat 02:15:20 PM 34.1367 -87.2053 238° Southwest 478 550 45,000  Level Memphis Center
Sat 02:16:20 PM 34.0653 -87.3483 239° Southwest 468 539 45,000  Level Memphis Center
Sat 02:17:20 PM 33.9994 -87.4808 239° Southwest 461 531 45,000  Level Memphis Center
Sat 02:18:20 PM 33.9233 -87.6186 236° Southwest 474 545 45,000  Level Memphis Center
Sat 02:19:20 PM 33.8492 -87.7686 239° Southwest 474 545 45,000  Level Memphis Center
Sat 02:20:20 PM 33.7789 -87.9031 238° Southwest 480 552 45,000  Level Memphis Center
Sat 02:21:20 PM 33.7125 -88.0347 239° Southwest 475 547 45,000  Level Memphis Center
Sat 02:22:20 PM 33.6461 -88.1614 238° Southwest 475 547 45,000  Level Memphis Center
Sat 02:23:20 PM 33.5772 -88.2903 237° Southwest 469 540 45,000  Level Memphis Center
Sat 02:24:20 PM 33.5208 -88.4061 240° Southwest 463 533 45,000  Level Memphis Center
Sat 02:25:20 PM 33.4558 -88.5372 239° Southwest 458 527 45,000  Level Memphis Center
Sat 02:26:20 PM 33.3889 -88.6653 238° Southwest 458 527 45,000  Level Memphis Center
Sat 02:27:20 PM 33.3217 -88.7911 237° Southwest 463 533 45,000  Level Memphis Center
Sat 02:28:20 PM 33.2522 -88.9189 237° Southwest 463 533 45,000  Level Memphis Center
Sat 02:29:20 PM 33.1786 -89.0567 237° Southwest 463 533 45,000  Level Memphis Center
Sat 02:30:20 PM 33.1108 -89.1817 237° Southwest 463 533 45,000  Level Memphis Center
Sat 02:31:20 PM 33.0453 -89.3064 238° Southwest 458 527 45,000  Level Memphis Center
Sat 02:32:20 PM 32.9775 -89.4311 237° Southwest 463 533 45,000  Level Memphis Center
Sat 02:33:20 PM 32.9094 -89.5531 236° Southwest 458 527 45,000  Level Memphis Center
Sat 02:34:20 PM 32.8475 -89.6625 236° Southwest 458 527 45,000  Level Memphis Center
Sat 02:35:20 PM 32.7750 -89.7914 236° Southwest 465 535 45,000  Level Memphis Center
Sat 02:36:20 PM 32.7108 -89.9203 239° Southwest 465 535 45,000  Level Memphis Center
Sat 02:37:20 PM 32.6422 -90.0464 237° Southwest 460 529 45,000  Level Memphis Center
Sat 02:38:20 PM 32.5736 -90.1725 237° Southwest 460 529 45,000  Level Memphis Center
Sat 02:39:20 PM 32.5050 -90.2981 237° Southwest 460 529 45,000  Level Memphis Center
Sat 02:40:20 PM 32.4361 -90.4189 236° Southwest 460 529 45,000  Level Memphis Center
Sat 02:42:33 PM 32.2847 -90.6953 237° Southwest 460 529 45,000  Level Houston Center
Sat 02:43:35 PM 32.2153 -90.8206 237° Southwest 453 521 45,000  Level Houston Center
Sat 02:44:37 PM 32.1317 -90.9694 236° Southwest 454 522 45,000  Level Houston Center
Sat 02:45:39 PM 32.0633 -91.0931 237° Southwest 452 520 45,000  Level Houston Center
Sat 02:46:41 PM 31.9939 -91.2147 236° Southwest 447 514 45,000  Level Houston Center
Sat 02:47:43 PM 31.9253 -91.3372 237° Southwest 447 514 45,000  Level Houston Center
Sat 02:48:45 PM 31.8572 -91.4583 237° Southwest 444 511 45,000  Level Houston Center
Sat 02:49:47 PM 31.7950 -91.5836 240° Southwest 442 509 45,000  Level Houston Center
Sat 02:50:49 PM 31.7303 -91.7400 244° Southwest 444 511 45,000  Level Houston Center
Sat 02:51:51 PM 31.6736 -91.8703 243° Southwest 446 513 45,000  Level Houston Center
Sat 02:52:53 PM 31.6183 -92.0014 244° Southwest 449 517 45,000  Level Houston Center
Sat 02:53:55 PM 31.5572 -92.1367 242° Southwest 450 518 45,000  Level Houston Center
Sat 02:54:57 PM 31.5011 -92.2683 243° Southwest 451 519 45,000  Level Houston Center
Sat 02:55:59 PM 31.4436 -92.3997 243° Southwest 453 521 45,000  Level Houston Center
Sat 02:57:01 PM 31.3844 -92.5286 242° Southwest 453 521 45,000  Level Houston Center
Sat 02:58:03 PM 31.3169 -92.6839 243° Southwest 448 516 45,000  Level Houston Center
Sat 02:59:05 PM 31.2614 -92.8156 244° Southwest 452 520 45,000  Level Houston Center
Sat 03:00:07 PM 31.2033 -92.9444 242° Southwest 452 520 45,000 -48 Level Houston Center
Sat 03:01:09 PM 31.1467 -93.0742 243° Southwest 451 519 44,900 -1,210 Descending Houston Center
Sat 03:02:11 PM 31.0908 -93.2008 243° Southwest 443 510 42,500 -2,293 Descending Houston Center
Sat 03:03:12 PM 31.0353 -93.3250 242° Southwest 437 503 40,200 -2,439 Descending Houston Center
Sat 03:04:14 PM 30.9703 -93.4706 243° Southwest 427 491 37,500 -2,323 Descending Houston Center
Sat 03:05:16 PM 30.9175 -93.5875 242° Southwest 415 478 35,400 -2,129 Descending Houston Center
Sat 03:06:18 PM 30.8636 -93.7089 243° Southwest 423 487 33,100 -2,323 Descending Houston Center
Sat 03:07:20 PM 30.8075 -93.8333 242° Southwest 435 501 30,600 -2,274 Descending Houston Center
Sat 03:08:22 PM 30.7506 -93.9606 243° Southwest 444 511 28,400 -2,341 Descending Houston Center
Sat 03:09:23 PM 30.6811 -94.1114 242° Southwest 445 512 25,800 -2,341 Descending Houston Center
Sat 03:10:25 PM 30.6247 -94.2339 242° Southwest 437 503 23,600 -2,112 Descending Houston Center
Sat 03:11:28 PM 30.5678 -94.3597 242° Southwest 426 490 21,400 -2,106 Descending Houston Center
Sat 03:11:59 PM 30.5386 -94.4267 243° Southwest 419 482 20,300 -1,967 Descending Houston Center
Sat 03:12:29 PM 30.5164 -94.4736 241° Southwest 425 489 19,400 -2,060 Descending Houston Center
Sat 03:13:06 PM 30.4714 -94.5567 238° Southwest 407 468 18,000 -1,935 Descending Houston Center
Sat 03:13:31 PM 30.4544 -94.5839 234° Southwest 414 476 17,400 -2,143 Descending Houston Center
Sat 03:14:02 PM 30.4072 -94.6522 231° Southwest 408 470 16,000 -1,935 Descending Houston Center
Sat 03:14:33 PM 30.3864 -94.6875 236° Southwest 411 473 15,400 -1,967 Descending Houston Center
Sat 03:15:03 PM 30.3414 -94.7550 232° Southwest 400 460 14,000 -2,459 Descending Houston Center
Sat 03:15:34 PM 30.3058 -94.8114 234° Southwest 400 460 12,900 -2,066 Descending Houston Center
Sat 03:16:04 PM 30.2753 -94.8556 231° Southwest 391 450 11,900 -1,935 Descending Houston Center
Sat 03:16:36 PM 30.2425 -94.9078 234° Southwest 393 452 10,900 -1,869 Descending Houston Center
Sat 03:17:05 PM 30.2114 -94.9556 233° Southwest 386 444 10,000 -871 Descending Houston Center
Sat 03:17:38 PM 30.1792 -95.0061 234° Southwest 386 444 10,000  Level Houston Center
Sat 03:18:06 PM 30.1392 -95.0611 230° Southwest 396 456 10,000  Level Houston Center
Sat 03:18:40 PM 30.0961 -95.0886 209° Southwest 410 472 10,000  Level Houston Center
Sat 03:19:08 PM 30.0331 -95.1153 200° South 413 475 10,000  Level Houston Center
Sat 03:19:41 PM 29.9889 -95.1342 200° South 413 475 10,000 -197 Level Houston Center
Sat 03:20:09 PM 29.9322 -95.1592 201° Southwest 337 388 9,800 -774 Descending Houston Center
Sat 03:20:43 PM 29.8986 -95.1722 199° South 352 405 9,200 -1,672 Descending Houston Center
Sat 03:21:10 PM 29.8511 -95.1931 201° Southwest 300 345 8,100 -2,419 Descending Houston Center
Sat 03:21:45 PM 29.8069 -95.2117 200° South 303 349 6,700 -2,066 Descending Houston Center
Sat 03:22:11 PM 29.7764 -95.2239 199° South 263 303 6,000 -677 Descending Houston Center
Sat 03:22:47 PM 29.7389 -95.2419 203° Southwest 270 311 6,000  Level Houston Center
Sat 03:23:12 PM 29.7050 -95.2469 187° South 273 314 6,000 -97 Level Houston Center
Sat 03:23:49 PM 29.6722 -95.2231 148° Southeast 268 308 5,900 -985 Descending Houston Center
Sat 03:24:19 PM 29.6369 -95.1928 143° Southeast 267 307 4,900 -1,869 Descending Houston Center
Sat 03:24:50 PM 29.6067 -95.1639 140° Southeast 270 311 4,000 -871 Descending Houston Center
Sat 03:25:21 PM 29.5794 -95.1397 142° Southeast 243 280 4,000  Level Houston Center
Sat 03:25:52 PM 29.5528 -95.1325 167° South 248 285 4,000 -545 Level Houston Center
Sat 03:26:16 PM 29.5428 -95.1514 239° Southwest 169 194 3,500 -1,452 Descending Houston Center
Sat 03:26:54 PM 29.5600 -95.1789 306° West 196 226 2,500 -1,433 Descending Houston Center
Sat 03:27:23 PM 29.5767 -95.2000 312° West 159 183 1,900 -1,258 Descending Houston Center
Sat 03:27:56 PM 29.5925 -95.2178 316° Northwest 175 201 1,200 -968 Descending Houston Center
Sat 03:28:25 PM 29.6072 -95.2347 315° West 158 182 900 -689 Descending Houston Center
Sat 03:28:57 PM 29.6219 -95.2528 313° West 163 188 500 -750 Descending Houston Center

Login

Don't have an account? Register now (free) for customized features, flight alerts, and more!